• Join FlightAware (Why Join?)
  • Login
  • US Flag 
03:06PM EST


 

Airport Tracker/Info


-or-


 

Live Flight TrackerFlight Track Log ✈ UAL6044 ✈ 23-Apr-2013 ✈ KIND - KIAD

Flight Track Log - Related Links

Times and Time Zones

All times are in EDT time to prevent confusion due to time zone crossing. See the UAL6044 flight status page for this flight to view local times or setup timezone preferences in your user account.

Time Position Orientation Groundspeed Altitude Reporting Facility
EDT Latitude Longitude Course Direction KTS MPH feet Rate Location/Type
03:18PM 39.7000 -86.3000 74° East 164 189 1,300  Level Indianapolis TRACON
03:18PM 39.6667 -86.3333 218° Southwest 178 205 2,900 1,980 Climbing Indianapolis TRACON
03:19PM 39.6167 -86.2833 142° Southeast 255 293 4,700 1,620 Climbing Indianapolis TRACON
03:20PM 39.6119 -86.2764 131° Southeast 286 329 5,100 2,400 Climbing Indianapolis Center
03:21PM 39.5669 -86.2058 130° Southeast 253 291 8,000 2,460 Climbing Indianapolis Center
03:22PM 39.5672 -86.1044 90° East 288 331 10,300 1,800 Climbing Indianapolis Center
03:23PM 39.8498 -85.4175 74° East  Level FlightAware Approximate
03:23PM 39.6133 -85.9697 66° East 338 389 11,800  Level Indianapolis Center
03:24PM 39.6614 -85.8422 64° Northeast 379 436 12,900 1,440 Climbing Indianapolis Center
03:25PM 39.6931 -85.7050 73° East 393 452 14,800 1,680 Climbing Indianapolis Center
03:26PM 39.7153 -85.5669 78° East 398 458 16,500 1,560 Climbing Indianapolis Center
03:27PM 39.7372 -85.4206 79° East 405 466 18,100 1,380 Climbing Indianapolis Center
03:28PM 39.7614 -85.2711 78° East 415 478 19,400 1,380 Climbing Indianapolis Center
03:29PM 39.7889 -85.0919 79° East 427 491 21,000 1,380 Climbing Indianapolis Center
03:30PM 39.8144 -84.9331 78° East 440 506 22,300 1,200 Climbing Indianapolis Center
03:31PM 39.8383 -84.7717 79° East 449 517 23,600 1,260 Climbing Indianapolis Center
03:32PM 39.8517 -84.6106 84° East 444 511 25,000 1,260 Climbing Indianapolis Center
03:33PM 39.8608 -84.4475 86° East 447 514 26,300 1,260 Climbing Indianapolis Center
03:34PM 39.8697 -84.2861 86° East 444 511 27,700 1,200 Climbing Indianapolis Center
03:35PM 39.8786 -84.1256 86° East 442 509 28,900 600 Climbing Indianapolis Center
03:36PM 39.8897 -83.9306 86° East 457 526 29,000  Climbing Indianapolis Center
03:37PM 39.8989 -83.7536 86° East 481 554 29,000  Level Indianapolis Center
03:38PM 39.9081 -83.5714 86° East 491 565 29,000  Level Indianapolis Center
03:39PM 39.9183 -83.3819 86° East 497 572 29,000  Level Indianapolis Center
03:40PM 39.9272 -83.1986 86° East 498 573 29,000  Level Indianapolis Center
03:41PM 39.9356 -83.0172 87° East 498 573 29,000  Level Indianapolis Center
03:42PM 39.9436 -82.8361 87° East 497 572 29,000  Level Indianapolis Center
03:43PM 39.9511 -82.6542 87° East 497 572 29,000  Level Indianapolis Center
03:45PM 39.9594 -82.4717 87° East 500 575 29,000  Level Indianapolis Center
03:46PM 39.9664 -82.2914 87° East 495 570 29,000  Level Indianapolis Center
03:47PM 39.9744 -82.1100 87° East 497 572 29,000  Level Indianapolis Center
03:48PM 39.9817 -81.8981 87° East 497 572 29,000  Level Indianapolis Center
03:49PM 39.9836 -81.7117 89° East 505 581 29,000  Level Indianapolis Center
03:50PM 39.9514 -81.5364 103° East 501 577 29,000  Level Indianapolis Center
03:51PM 39.9125 -81.3664 107° East 503 579 29,000  Level Indianapolis Center
03:52PM 39.8719 -81.1933 107° East 500 575 29,000  Level Indianapolis Center
03:53PM 39.8325 -81.0200 106° East 498 573 29,000  Level Indianapolis Center
03:54PM 39.7839 -80.8119 107° East 499 574 29,000  Level Indianapolis Center
03:55PM 39.7419 -80.6156 105° East 497 572 29,000  Level Cleveland Center
03:56PM 39.7003 -80.4456 108° East 497 572 29,000  Level Cleveland Center
03:58PM 39.6192 -80.1161 108° East 504 580 29,000  Level Indianapolis Center
03:59PM 39.5753 -79.9264 107° East 501 577 29,000 -480 Level Washington Center
04:00PM 39.5364 -79.7303 104° East 506 582 28,100 -1,020 Descending Washington Center
04:01PM 39.5047 -79.5536 103° East 506 582 27,000 -600 Descending Washington Center
04:02PM 39.4747 -79.3878 103° East 493 567 27,000 -300 Level Washington Center
04:03PM 39.4481 -79.2358 103° East 479 551 26,500 -1,200 Descending Washington Center
04:04PM 39.4175 -79.0706 103° East 479 551 24,600 -1,920 Descending Washington Center
04:05PM 39.3886 -78.9161 104° East 466 536 22,700 -2,280 Descending Washington Center
04:06PM 39.3614 -78.7644 103° East 444 511 20,100 -2,760 Descending Washington Center
04:07PM 39.3361 -78.6186 103° East 431 496 17,200 -2,760 Descending Washington Center
04:08PM 39.3083 -78.4750 104° East 411 473 14,600 -2,580 Descending Washington Center
04:09PM 39.2739 -78.3425 109° East 398 458 12,100 -1,800 Descending Washington Center
04:10PM 39.2219 -78.2414 124° Southeast 377 434 11,000 -1,440 Descending Washington Center
04:11PM 39.1717 -78.1511 126° Southeast 331 381 9,300 -1,680 Descending Washington Center
04:12PM 39.1278 -78.0667 124° Southeast 307 353 7,700 -1,200 Descending Washington Center
04:13PM 39.0833 -77.9850 125° Southeast 287 330 6,900 -420 Descending Washington Center
04:14PM 39.0414 -77.9033 123° Southeast 282 325 6,900 -420 Level Washington Center
04:15PM 38.9931 -77.8111 124° Southeast 277 319 6,100 -420 Descending Washington Center
04:16PM 38.9633 -77.7247 114° Southeast 266 306 6,100  Level Washington Center
04:17PM 38.9458 -77.6414 105° East 261 300 6,100 -540 Level Washington Center
04:18PM 38.9167 -77.6000 132° Southeast 274 315 5,400 -1,500 Descending Potomac TRACON
04:19PM 38.8333 -77.5667 163° South 267 307 4,000 -900 Descending Potomac TRACON
04:20PM 38.7833 -77.5500 165° South 221 254 3,700 -300 Descending Potomac TRACON